sensor_id;sensor_type;location;lat;lon;timestamp;P1;durP1;ratioP1;P2;durP2;ratioP2
75437;SDS011;64015;49.392;15.582;2022-11-23T00:01:34;25.90;;;9.60;;
75437;SDS011;64015;49.392;15.582;2022-11-23T00:06:30;28.88;;;9.18;;
75437;SDS011;64015;49.392;15.582;2022-11-23T00:08:56;20.52;;;8.65;;
75437;SDS011;64015;49.392;15.582;2022-11-23T00:11:22;23.08;;;9.35;;
75437;SDS011;64015;49.392;15.582;2022-11-23T00:13:49;23.75;;;9.27;;
75437;SDS011;64015;49.392;15.582;2022-11-23T00:16:17;24.73;;;9.55;;
75437;SDS011;64015;49.392;15.582;2022-11-23T00:18:44;24.10;;;9.93;;
75437;SDS011;64015;49.392;15.582;2022-11-23T00:21:12;27.27;;;10.23;;
75437;SDS011;64015;49.392;15.582;2022-11-23T00:23:39;23.02;;;9.40;;
75437;SDS011;64015;49.392;15.582;2022-11-23T00:26:05;20.85;;;8.60;;
75437;SDS011;64015;49.392;15.582;2022-11-23T00:28:31;20.17;;;8.73;;
75437;SDS011;64015;49.392;15.582;2022-11-23T00:30:57;24.45;;;9.52;;
75437;SDS011;64015;49.392;15.582;2022-11-23T00:33:22;23.55;;;9.48;;
75437;SDS011;64015;49.392;15.582;2022-11-23T00:35:57;22.40;;;9.02;;
75437;SDS011;64015;49.392;15.582;2022-11-23T00:38:24;28.33;;;10.50;;
75437;SDS011;64015;49.392;15.582;2022-11-23T00:40:55;20.35;;;8.15;;
75437;SDS011;64015;49.392;15.582;2022-11-23T00:43:31;22.25;;;9.20;;
75437;SDS011;64015;49.392;15.582;2022-11-23T00:46:04;25.27;;;10.07;;
75437;SDS011;64015;49.392;15.582;2022-11-23T00:48:36;21.13;;;8.88;;
75437;SDS011;64015;49.392;15.582;2022-11-23T00:51:03;22.40;;;9.50;;
75437;SDS011;64015;49.392;15.582;2022-11-23T00:53:29;22.88;;;8.90;;
75437;SDS011;64015;49.392;15.582;2022-11-23T00:55:55;23.00;;;9.88;;
75437;SDS011;64015;49.392;15.582;2022-11-23T00:58:22;22.17;;;9.18;;
75437;SDS011;64015;49.392;15.582;2022-11-23T01:00:48;23.63;;;9.82;;
75437;SDS011;64015;49.392;15.582;2022-11-23T01:03:14;23.08;;;8.25;;
75437;SDS011;64015;49.392;15.582;2022-11-23T01:05:40;24.23;;;9.98;;
75437;SDS011;64015;49.392;15.582;2022-11-23T01:08:06;23.10;;;9.15;;
75437;SDS011;64015;49.392;15.582;2022-11-23T01:10:32;22.58;;;8.88;;
75437;SDS011;64015;49.392;15.582;2022-11-23T01:13:17;18.85;;;8.65;;
75437;SDS011;64015;49.392;15.582;2022-11-23T01:15:49;24.08;;;9.00;;
75437;SDS011;64015;49.392;15.582;2022-11-23T01:18:14;18.38;;;8.07;;
75437;SDS011;64015;49.392;15.582;2022-11-23T01:20:40;19.42;;;8.32;;
75437;SDS011;64015;49.392;15.582;2022-11-23T01:23:05;22.17;;;8.95;;
75437;SDS011;64015;49.392;15.582;2022-11-23T01:25:31;21.38;;;8.40;;
75437;SDS011;64015;49.392;15.582;2022-11-23T01:27:56;19.88;;;8.57;;
75437;SDS011;64015;49.392;15.582;2022-11-23T01:30:22;18.63;;;8.38;;
75437;SDS011;64015;49.392;15.582;2022-11-23T01:32:47;22.17;;;8.35;;
75437;SDS011;64015;49.392;15.582;2022-11-23T01:35:13;23.13;;;8.80;;
75437;SDS011;64015;49.392;15.582;2022-11-23T01:37:39;18.52;;;7.82;;
75437;SDS011;64015;49.392;15.582;2022-11-23T01:40:04;22.65;;;8.27;;
75437;SDS011;64015;49.392;15.582;2022-11-23T01:45:42;18.73;;;8.25;;
75437;SDS011;64015;49.392;15.582;2022-11-23T01:48:17;23.10;;;9.32;;
75437;SDS011;64015;49.392;15.582;2022-11-23T01:50:47;21.65;;;8.30;;
75437;SDS011;64015;49.392;15.582;2022-11-23T01:53:15;20.23;;;8.25;;
75437;SDS011;64015;49.392;15.582;2022-11-23T01:55:42;23.10;;;8.07;;
75437;SDS011;64015;49.392;15.582;2022-11-23T01:58:12;21.65;;;8.68;;
75437;SDS011;64015;49.392;15.582;2022-11-23T02:00:40;22.17;;;8.93;;
75437;SDS011;64015;49.392;15.582;2022-11-23T02:03:06;22.17;;;7.75;;
75437;SDS011;64015;49.392;15.582;2022-11-23T02:05:38;21.38;;;7.57;;
75437;SDS011;64015;49.392;15.582;2022-11-23T02:08:08;20.55;;;9.27;;
75437;SDS011;64015;49.392;15.582;2022-11-23T02:10:35;21.98;;;9.88;;
75437;SDS011;64015;49.392;15.582;2022-11-23T02:13:05;19.35;;;9.30;;
75437;SDS011;64015;49.392;15.582;2022-11-23T02:15:34;20.95;;;8.30;;
75437;SDS011;64015;49.392;15.582;2022-11-23T02:18:01;18.00;;;8.70;;
75437;SDS011;64015;49.392;15.582;2022-11-23T02:20:28;20.25;;;7.90;;
75437;SDS011;64015;49.392;15.582;2022-11-23T02:23:11;16.75;;;6.75;;
75437;SDS011;64015;49.392;15.582;2022-11-23T02:28:53;18.08;;;7.18;;
75437;SDS011;64015;49.392;15.582;2022-11-23T02:31:32;18.27;;;7.57;;
75437;SDS011;64015;49.392;15.582;2022-11-23T02:33:58;20.15;;;8.70;;
75437;SDS011;64015;49.392;15.582;2022-11-23T02:36:33;17.23;;;7.68;;
75437;SDS011;64015;49.392;15.582;2022-11-23T02:39:21;15.27;;;7.35;;
75437;SDS011;64015;49.392;15.582;2022-11-23T02:41:53;18.63;;;8.38;;
75437;SDS011;64015;49.392;15.582;2022-11-23T02:44:24;19.65;;;8.90;;
75437;SDS011;64015;49.392;15.582;2022-11-23T02:47:02;20.50;;;9.07;;
75437;SDS011;64015;49.392;15.582;2022-11-23T02:49:28;17.38;;;7.63;;
75437;SDS011;64015;49.392;15.582;2022-11-23T02:51:54;20.48;;;9.07;;
75437;SDS011;64015;49.392;15.582;2022-11-23T02:54:19;22.25;;;8.23;;
75437;SDS011;64015;49.392;15.582;2022-11-23T02:56:45;17.95;;;7.75;;
75437;SDS011;64015;49.392;15.582;2022-11-23T02:59:10;19.63;;;8.82;;
75437;SDS011;64015;49.392;15.582;2022-11-23T03:01:36;22.58;;;8.60;;
75437;SDS011;64015;49.392;15.582;2022-11-23T03:04:04;22.23;;;8.93;;
75437;SDS011;64015;49.392;15.582;2022-11-23T03:06:30;18.92;;;8.20;;
75437;SDS011;64015;49.392;15.582;2022-11-23T03:08:56;21.63;;;8.27;;
75437;SDS011;64015;49.392;15.582;2022-11-23T03:11:21;19.00;;;7.85;;
75437;SDS011;64015;49.392;15.582;2022-11-23T03:13:47;19.25;;;8.55;;
75437;SDS011;64015;49.392;15.582;2022-11-23T03:16:12;17.83;;;7.45;;
75437;SDS011;64015;49.392;15.582;2022-11-23T03:18:38;17.10;;;7.82;;
75437;SDS011;64015;49.392;15.582;2022-11-23T03:21:04;15.57;;;7.35;;
75437;SDS011;64015;49.392;15.582;2022-11-23T03:23:32;17.95;;;7.63;;
75437;SDS011;64015;49.392;15.582;2022-11-23T03:25:58;21.52;;;8.18;;
75437;SDS011;64015;49.392;15.582;2022-11-23T03:28:24;18.52;;;8.18;;
75437;SDS011;64015;49.392;15.582;2022-11-23T03:30:50;22.42;;;9.25;;
75437;SDS011;64015;49.392;15.582;2022-11-23T03:33:16;22.92;;;8.82;;
75437;SDS011;64015;49.392;15.582;2022-11-23T03:35:42;22.70;;;8.80;;
75437;SDS011;64015;49.392;15.582;2022-11-23T03:38:08;24.33;;;9.65;;
75437;SDS011;64015;49.392;15.582;2022-11-23T03:40:33;23.08;;;8.85;;
75437;SDS011;64015;49.392;15.582;2022-11-23T03:42:59;20.40;;;9.23;;
75437;SDS011;64015;49.392;15.582;2022-11-23T03:45:25;21.75;;;8.85;;
75437;SDS011;64015;49.392;15.582;2022-11-23T03:47:50;23.00;;;10.02;;
75437;SDS011;64015;49.392;15.582;2022-11-23T03:50:16;26.05;;;9.82;;
75437;SDS011;64015;49.392;15.582;2022-11-23T03:52:41;25.88;;;10.05;;
75437;SDS011;64015;49.392;15.582;2022-11-23T03:55:07;20.80;;;8.73;;
75437;SDS011;64015;49.392;15.582;2022-11-23T03:57:32;22.30;;;10.10;;
75437;SDS011;64015;49.392;15.582;2022-11-23T03:59:58;21.02;;;9.65;;
75437;SDS011;64015;49.392;15.582;2022-11-23T04:02:24;22.08;;;9.27;;
75437;SDS011;64015;49.392;15.582;2022-11-23T04:04:50;22.80;;;9.35;;
75437;SDS011;64015;49.392;15.582;2022-11-23T04:07:15;18.77;;;8.98;;
75437;SDS011;64015;49.392;15.582;2022-11-23T04:09:41;19.67;;;8.82;;
75437;SDS011;64015;49.392;15.582;2022-11-23T04:12:07;23.63;;;8.63;;
75437;SDS011;64015;49.392;15.582;2022-11-23T04:14:33;18.35;;;8.55;;
75437;SDS011;64015;49.392;15.582;2022-11-23T04:16:59;21.73;;;8.50;;
75437;SDS011;64015;49.392;15.582;2022-11-23T04:19:26;21.88;;;9.00;;
75437;SDS011;64015;49.392;15.582;2022-11-23T04:21:52;18.75;;;9.23;;
75437;SDS011;64015;49.392;15.582;2022-11-23T04:24:18;21.70;;;8.30;;
75437;SDS011;64015;49.392;15.582;2022-11-23T04:26:43;24.90;;;9.70;;
75437;SDS011;64015;49.392;15.582;2022-11-23T04:29:09;26.00;;;9.00;;
75437;SDS011;64015;49.392;15.582;2022-11-23T04:31:35;22.20;;;9.38;;
75437;SDS011;64015;49.392;15.582;2022-11-23T04:34:00;20.38;;;8.52;;
75437;SDS011;64015;49.392;15.582;2022-11-23T04:36:26;20.35;;;8.10;;
75437;SDS011;64015;49.392;15.582;2022-11-23T04:38:52;18.42;;;8.30;;
75437;SDS011;64015;49.392;15.582;2022-11-23T04:41:17;19.52;;;8.38;;
75437;SDS011;64015;49.392;15.582;2022-11-23T04:43:43;23.73;;;9.68;;
75437;SDS011;64015;49.392;15.582;2022-11-23T04:46:12;22.17;;;9.00;;
75437;SDS011;64015;49.392;15.582;2022-11-23T04:48:38;28.00;;;13.45;;
75437;SDS011;64015;49.392;15.582;2022-11-23T04:51:03;24.20;;;10.50;;
75437;SDS011;64015;49.392;15.582;2022-11-23T04:53:29;25.30;;;9.95;;
75437;SDS011;64015;49.392;15.582;2022-11-23T04:55:54;22.75;;;9.23;;
75437;SDS011;64015;49.392;15.582;2022-11-23T04:58:20;20.75;;;8.52;;
75437;SDS011;64015;49.392;15.582;2022-11-23T05:00:45;20.00;;;8.65;;
75437;SDS011;64015;49.392;15.582;2022-11-23T05:03:11;19.63;;;8.35;;
75437;SDS011;64015;49.392;15.582;2022-11-23T05:05:37;17.95;;;8.48;;
75437;SDS011;64015;49.392;15.582;2022-11-23T05:08:03;22.73;;;10.30;;
75437;SDS011;64015;49.392;15.582;2022-11-23T05:10:29;20.55;;;7.88;;
75437;SDS011;64015;49.392;15.582;2022-11-23T05:12:55;18.55;;;7.95;;
75437;SDS011;64015;49.392;15.582;2022-11-23T05:15:20;20.85;;;8.23;;
75437;SDS011;64015;49.392;15.582;2022-11-23T05:17:46;22.98;;;9.27;;
75437;SDS011;64015;49.392;15.582;2022-11-23T05:20:11;21.05;;;8.63;;
75437;SDS011;64015;49.392;15.582;2022-11-23T05:22:37;25.20;;;7.82;;
75437;SDS011;64015;49.392;15.582;2022-11-23T05:25:03;19.85;;;7.00;;
75437;SDS011;64015;49.392;15.582;2022-11-23T05:27:29;22.02;;;9.07;;
75437;SDS011;64015;49.392;15.582;2022-11-23T05:29:54;18.85;;;7.97;;
75437;SDS011;64015;49.392;15.582;2022-11-23T05:32:20;21.58;;;8.90;;
75437;SDS011;64015;49.392;15.582;2022-11-23T05:34:46;20.40;;;8.82;;
75437;SDS011;64015;49.392;15.582;2022-11-23T05:37:12;20.45;;;8.13;;
75437;SDS011;64015;49.392;15.582;2022-11-23T05:39:37;24.42;;;8.02;;
75437;SDS011;64015;49.392;15.582;2022-11-23T05:42:03;24.20;;;8.77;;
75437;SDS011;64015;49.392;15.582;2022-11-23T05:44:29;19.02;;;8.30;;
75437;SDS011;64015;49.392;15.582;2022-11-23T05:46:54;16.88;;;7.47;;
75437;SDS011;64015;49.392;15.582;2022-11-23T05:49:20;23.17;;;8.45;;
75437;SDS011;64015;49.392;15.582;2022-11-23T05:51:45;22.15;;;9.30;;
75437;SDS011;64015;49.392;15.582;2022-11-23T05:54:11;26.80;;;9.68;;
75437;SDS011;64015;49.392;15.582;2022-11-23T05:56:36;21.90;;;8.93;;
75437;SDS011;64015;49.392;15.582;2022-11-23T05:59:02;25.52;;;8.57;;
75437;SDS011;64015;49.392;15.582;2022-11-23T06:01:29;24.10;;;9.88;;
75437;SDS011;64015;49.392;15.582;2022-11-23T06:03:56;24.02;;;9.07;;
75437;SDS011;64015;49.392;15.582;2022-11-23T06:06:21;21.38;;;9.13;;
75437;SDS011;64015;49.392;15.582;2022-11-23T06:08:47;23.38;;;8.48;;
75437;SDS011;64015;49.392;15.582;2022-11-23T06:11:13;22.98;;;8.80;;
75437;SDS011;64015;49.392;15.582;2022-11-23T06:13:38;19.77;;;8.65;;
75437;SDS011;64015;49.392;15.582;2022-11-23T06:16:04;26.75;;;9.30;;
75437;SDS011;64015;49.392;15.582;2022-11-23T06:18:29;22.77;;;8.75;;
75437;SDS011;64015;49.392;15.582;2022-11-23T06:20:58;17.92;;;8.05;;
75437;SDS011;64015;49.392;15.582;2022-11-23T06:23:24;25.48;;;8.65;;
75437;SDS011;64015;49.392;15.582;2022-11-23T06:25:50;22.73;;;9.70;;
75437;SDS011;64015;49.392;15.582;2022-11-23T06:28:15;24.42;;;9.00;;
75437;SDS011;64015;49.392;15.582;2022-11-23T06:30:41;25.15;;;9.70;;
75437;SDS011;64015;49.392;15.582;2022-11-23T06:33:06;26.48;;;9.35;;
75437;SDS011;64015;49.392;15.582;2022-11-23T06:35:32;25.38;;;9.63;;
75437;SDS011;64015;49.392;15.582;2022-11-23T06:37:58;26.23;;;10.13;;
75437;SDS011;64015;49.392;15.582;2022-11-23T06:40:23;22.90;;;9.18;;
75437;SDS011;64015;49.392;15.582;2022-11-23T06:42:49;24.17;;;9.20;;
75437;SDS011;64015;49.392;15.582;2022-11-23T06:45:14;28.75;;;10.25;;
75437;SDS011;64015;49.392;15.582;2022-11-23T06:47:40;25.73;;;9.55;;
75437;SDS011;64015;49.392;15.582;2022-11-23T06:50:06;23.33;;;9.93;;
75437;SDS011;64015;49.392;15.582;2022-11-23T06:52:32;24.13;;;9.15;;
75437;SDS011;64015;49.392;15.582;2022-11-23T06:54:57;23.65;;;9.18;;
75437;SDS011;64015;49.392;15.582;2022-11-23T06:57:23;27.58;;;9.73;;
75437;SDS011;64015;49.392;15.582;2022-11-23T06:59:48;24.30;;;9.85;;
75437;SDS011;64015;49.392;15.582;2022-11-23T07:02:14;25.77;;;10.73;;
75437;SDS011;64015;49.392;15.582;2022-11-23T07:04:40;27.10;;;10.82;;
75437;SDS011;64015;49.392;15.582;2022-11-23T07:07:08;25.85;;;9.23;;
75437;SDS011;64015;49.392;15.582;2022-11-23T07:09:34;25.98;;;9.02;;
75437;SDS011;64015;49.392;15.582;2022-11-23T07:11:59;23.08;;;9.95;;
75437;SDS011;64015;49.392;15.582;2022-11-23T07:14:26;24.83;;;9.43;;
75437;SDS011;64015;49.392;15.582;2022-11-23T07:16:51;24.52;;;10.15;;
75437;SDS011;64015;49.392;15.582;2022-11-23T07:19:17;26.85;;;10.15;;
75437;SDS011;64015;49.392;15.582;2022-11-23T07:21:43;23.40;;;9.77;;
75437;SDS011;64015;49.392;15.582;2022-11-23T07:24:09;22.65;;;8.75;;
75437;SDS011;64015;49.392;15.582;2022-11-23T07:26:35;22.23;;;9.27;;
75437;SDS011;64015;49.392;15.582;2022-11-23T07:29:00;27.70;;;11.30;;
75437;SDS011;64015;49.392;15.582;2022-11-23T07:31:26;24.13;;;9.63;;
75437;SDS011;64015;49.392;15.582;2022-11-23T07:33:52;22.80;;;9.85;;
75437;SDS011;64015;49.392;15.582;2022-11-23T07:36:17;22.35;;;9.50;;
75437;SDS011;64015;49.392;15.582;2022-11-23T07:38:43;25.33;;;10.57;;
75437;SDS011;64015;49.392;15.582;2022-11-23T07:41:09;26.35;;;10.00;;
75437;SDS011;64015;49.392;15.582;2022-11-23T07:43:34;23.10;;;9.43;;
75437;SDS011;64015;49.392;15.582;2022-11-23T07:46:00;19.98;;;9.07;;
75437;SDS011;64015;49.392;15.582;2022-11-23T07:48:26;22.55;;;9.60;;
75437;SDS011;64015;49.392;15.582;2022-11-23T07:50:52;20.63;;;9.63;;
75437;SDS011;64015;49.392;15.582;2022-11-23T07:53:18;23.98;;;9.63;;
75437;SDS011;64015;49.392;15.582;2022-11-23T07:55:44;23.05;;;9.43;;
75437;SDS011;64015;49.392;15.582;2022-11-23T07:58:10;21.80;;;9.43;;
75437;SDS011;64015;49.392;15.582;2022-11-23T08:00:36;24.70;;;9.93;;
75437;SDS011;64015;49.392;15.582;2022-11-23T08:03:02;22.90;;;9.02;;
75437;SDS011;64015;49.392;15.582;2022-11-23T08:05:31;23.33;;;9.35;;
75437;SDS011;64015;49.392;15.582;2022-11-23T08:07:58;21.08;;;9.15;;
75437;SDS011;64015;49.392;15.582;2022-11-23T08:10:27;22.70;;;9.00;;
75437;SDS011;64015;49.392;15.582;2022-11-23T08:12:57;26.00;;;10.48;;
75437;SDS011;64015;49.392;15.582;2022-11-23T08:15:24;24.65;;;9.95;;
75437;SDS011;64015;49.392;15.582;2022-11-23T08:17:55;23.55;;;9.93;;
75437;SDS011;64015;49.392;15.582;2022-11-23T08:20:22;20.42;;;9.35;;
75437;SDS011;64015;49.392;15.582;2022-11-23T08:22:47;20.20;;;9.48;;
75437;SDS011;64015;49.392;15.582;2022-11-23T08:25:13;21.05;;;9.25;;
75437;SDS011;64015;49.392;15.582;2022-11-23T08:27:39;20.55;;;8.80;;
75437;SDS011;64015;49.392;15.582;2022-11-23T08:30:05;22.95;;;10.07;;
75437;SDS011;64015;49.392;15.582;2022-11-23T08:32:31;22.13;;;9.63;;
75437;SDS011;64015;49.392;15.582;2022-11-23T08:34:56;19.25;;;8.48;;
75437;SDS011;64015;49.392;15.582;2022-11-23T08:37:23;19.15;;;8.82;;
75437;SDS011;64015;49.392;15.582;2022-11-23T08:39:49;22.95;;;9.80;;
75437;SDS011;64015;49.392;15.582;2022-11-23T08:42:15;22.23;;;9.30;;
75437;SDS011;64015;49.392;15.582;2022-11-23T08:44:40;22.45;;;9.43;;
75437;SDS011;64015;49.392;15.582;2022-11-23T08:47:06;20.83;;;8.57;;
75437;SDS011;64015;49.392;15.582;2022-11-23T08:49:31;20.20;;;9.38;;
75437;SDS011;64015;49.392;15.582;2022-11-23T08:51:57;21.15;;;9.85;;
75437;SDS011;64015;49.392;15.582;2022-11-23T08:54:24;22.83;;;10.80;;
75437;SDS011;64015;49.392;15.582;2022-11-23T08:56:50;22.63;;;9.45;;
75437;SDS011;64015;49.392;15.582;2022-11-23T08:59:16;25.08;;;11.05;;
75437;SDS011;64015;49.392;15.582;2022-11-23T09:01:42;22.60;;;10.85;;
75437;SDS011;64015;49.392;15.582;2022-11-23T09:04:08;22.10;;;10.82;;
75437;SDS011;64015;49.392;15.582;2022-11-23T09:06:34;23.55;;;9.52;;
75437;SDS011;64015;49.392;15.582;2022-11-23T09:09:00;24.20;;;9.60;;
75437;SDS011;64015;49.392;15.582;2022-11-23T09:11:25;24.65;;;10.45;;
75437;SDS011;64015;49.392;15.582;2022-11-23T09:13:51;20.73;;;8.40;;
75437;SDS011;64015;49.392;15.582;2022-11-23T09:16:17;25.10;;;10.73;;
75437;SDS011;64015;49.392;15.582;2022-11-23T09:18:42;22.50;;;9.40;;
75437;SDS011;64015;49.392;15.582;2022-11-23T09:21:08;21.20;;;9.85;;
75437;SDS011;64015;49.392;15.582;2022-11-23T09:23:34;23.10;;;9.95;;
75437;SDS011;64015;49.392;15.582;2022-11-23T09:26:01;27.88;;;9.88;;
75437;SDS011;64015;49.392;15.582;2022-11-23T09:28:27;23.42;;;10.95;;
75437;SDS011;64015;49.392;15.582;2022-11-23T09:30:54;22.92;;;10.65;;
75437;SDS011;64015;49.392;15.582;2022-11-23T09:33:20;19.65;;;8.88;;
75437;SDS011;64015;49.392;15.582;2022-11-23T09:35:55;18.48;;;8.82;;
75437;SDS011;64015;49.392;15.582;2022-11-23T09:38:21;25.00;;;10.40;;
75437;SDS011;64015;49.392;15.582;2022-11-23T09:40:47;19.75;;;8.70;;
75437;SDS011;64015;49.392;15.582;2022-11-23T09:46:42;16.55;;;7.20;;
75437;SDS011;64015;49.392;15.582;2022-11-23T09:49:20;17.90;;;7.53;;
75437;SDS011;64015;49.392;15.582;2022-11-23T09:51:49;16.60;;;7.13;;
75437;SDS011;64015;49.392;15.582;2022-11-23T09:54:24;16.90;;;7.60;;
75437;SDS011;64015;49.392;15.582;2022-11-23T09:56:53;15.60;;;7.72;;
75437;SDS011;64015;49.392;15.582;2022-11-23T10:01:58;14.98;;;6.72;;
75437;SDS011;64015;49.392;15.582;2022-11-23T10:04:24;16.15;;;7.35;;
75437;SDS011;64015;49.392;15.582;2022-11-23T10:06:59;17.80;;;8.52;;
75437;SDS011;64015;49.392;15.582;2022-11-23T10:15:26;17.08;;;7.50;;
75437;SDS011;64015;49.392;15.582;2022-11-23T10:20:47;16.20;;;6.82;;
75437;SDS011;64015;49.392;15.582;2022-11-23T10:23:21;17.23;;;7.80;;
75437;SDS011;64015;49.392;15.582;2022-11-23T10:25:58;21.70;;;8.38;;
75437;SDS011;64015;49.392;15.582;2022-11-23T10:28:26;16.80;;;8.43;;
75437;SDS011;64015;49.392;15.582;2022-11-23T10:36:33;18.27;;;8.60;;
75437;SDS011;64015;49.392;15.582;2022-11-23T10:39:00;16.52;;;7.95;;
75437;SDS011;64015;49.392;15.582;2022-11-23T10:41:28;20.65;;;9.65;;
75437;SDS011;64015;49.392;15.582;2022-11-23T10:46:37;18.95;;;8.70;;
75437;SDS011;64015;49.392;15.582;2022-11-23T10:51:58;22.08;;;9.18;;
75437;SDS011;64015;49.392;15.582;2022-11-23T10:54:51;16.38;;;7.20;;
75437;SDS011;64015;49.392;15.582;2022-11-23T10:57:20;22.45;;;9.52;;
75437;SDS011;64015;49.392;15.582;2022-11-23T10:59:59;23.10;;;10.20;;
75437;SDS011;64015;49.392;15.582;2022-11-23T11:02:30;20.55;;;8.77;;
75437;SDS011;64015;49.392;15.582;2022-11-23T11:05:11;19.00;;;8.25;;
75437;SDS011;64015;49.392;15.582;2022-11-23T11:07:56;16.13;;;8.23;;
75437;SDS011;64015;49.392;15.582;2022-11-23T11:10:40;12.77;;;6.78;;
75437;SDS011;64015;49.392;15.582;2022-11-23T11:15:56;17.55;;;7.32;;
75437;SDS011;64015;49.392;15.582;2022-11-23T11:18:24;13.73;;;7.50;;
75437;SDS011;64015;49.392;15.582;2022-11-23T11:20:55;12.75;;;6.50;;
75437;SDS011;64015;49.392;15.582;2022-11-23T11:23:22;13.25;;;6.68;;
75437;SDS011;64015;49.392;15.582;2022-11-23T11:25:49;12.40;;;6.75;;
75437;SDS011;64015;49.392;15.582;2022-11-23T11:28:37;11.60;;;6.15;;
75437;SDS011;64015;49.392;15.582;2022-11-23T11:37:29;22.77;;;7.35;;
75437;SDS011;64015;49.392;15.582;2022-11-23T11:42:35;16.25;;;6.55;;
75437;SDS011;64015;49.392;15.582;2022-11-23T11:45:06;11.18;;;5.57;;
75437;SDS011;64015;49.392;15.582;2022-11-23T11:47:45;13.38;;;6.68;;
75437;SDS011;64015;49.392;15.582;2022-11-23T11:50:22;16.90;;;6.93;;
75437;SDS011;64015;49.392;15.582;2022-11-23T11:52:51;13.00;;;6.72;;
75437;SDS011;64015;49.392;15.582;2022-11-23T11:55:25;12.57;;;6.32;;
75437;SDS011;64015;49.392;15.582;2022-11-23T11:58:15;13.73;;;5.72;;
75437;SDS011;64015;49.392;15.582;2022-11-23T12:00:42;11.57;;;6.10;;
75437;SDS011;64015;49.392;15.582;2022-11-23T12:03:35;10.35;;;4.95;;
75437;SDS011;64015;49.392;15.582;2022-11-23T12:06:22;11.23;;;4.32;;
75437;SDS011;64015;49.392;15.582;2022-11-23T12:08:56;9.70;;;4.68;;
75437;SDS011;64015;49.392;15.582;2022-11-23T12:11:27;15.05;;;5.50;;
75437;SDS011;64015;49.392;15.582;2022-11-23T12:13:54;13.63;;;4.38;;
75437;SDS011;64015;49.392;15.582;2022-11-23T12:16:42;12.90;;;5.55;;
75437;SDS011;64015;49.392;15.582;2022-11-23T12:19:17;11.48;;;5.22;;
75437;SDS011;64015;49.392;15.582;2022-11-23T12:22:34;12.27;;;5.13;;
75437;SDS011;64015;49.392;15.582;2022-11-23T12:24:42;10.93;;;5.03;;
75437;SDS011;64015;49.392;15.582;2022-11-23T12:30:56;11.45;;;5.05;;
75437;SDS011;64015;49.392;15.582;2022-11-23T12:33:51;10.27;;;4.78;;
75437;SDS011;64015;49.392;15.582;2022-11-23T12:36:41;12.65;;;5.97;;
75437;SDS011;64015;49.392;15.582;2022-11-23T12:45:16;11.40;;;5.53;;
75437;SDS011;64015;49.392;15.582;2022-11-23T12:48:04;11.77;;;5.47;;
75437;SDS011;64015;49.392;15.582;2022-11-23T12:50:40;13.20;;;5.75;;
75437;SDS011;64015;49.392;15.582;2022-11-23T12:53:33;8.38;;;4.20;;
75437;SDS011;64015;49.392;15.582;2022-11-23T13:01:40;11.00;;;5.45;;
75437;SDS011;64015;49.392;15.582;2022-11-23T13:07:03;17.95;;;6.20;;
75437;SDS011;64015;49.392;15.582;2022-11-23T13:14:49;13.10;;;6.10;;
75437;SDS011;64015;49.392;15.582;2022-11-23T13:20:12;15.88;;;7.32;;
75437;SDS011;64015;49.392;15.582;2022-11-23T13:22:44;12.57;;;6.80;;
75437;SDS011;64015;49.392;15.582;2022-11-23T13:30:15;10.82;;;5.45;;
75437;SDS011;64015;49.392;15.582;2022-11-23T13:32:52;13.82;;;7.03;;
75437;SDS011;64015;49.392;15.582;2022-11-23T13:35:49;14.25;;;8.02;;
75437;SDS011;64015;49.392;15.582;2022-11-23T13:38:18;16.85;;;7.55;;
75437;SDS011;64015;49.392;15.582;2022-11-23T13:40:49;14.90;;;6.70;;
75437;SDS011;64015;49.392;15.582;2022-11-23T13:43:26;17.10;;;7.97;;
75437;SDS011;64015;49.392;15.582;2022-11-23T13:46:10;16.35;;;8.82;;
75437;SDS011;64015;49.392;15.582;2022-11-23T13:48:56;14.25;;;7.55;;
75437;SDS011;64015;49.392;15.582;2022-11-23T13:51:28;22.60;;;11.15;;
75437;SDS011;64015;49.392;15.582;2022-11-23T13:54:02;24.13;;;13.13;;
75437;SDS011;64015;49.392;15.582;2022-11-23T13:56:41;19.80;;;10.70;;
75437;SDS011;64015;49.392;15.582;2022-11-23T14:04:35;14.82;;;7.50;;
75437;SDS011;64015;49.392;15.582;2022-11-23T14:07:10;17.52;;;8.40;;
75437;SDS011;64015;49.392;15.582;2022-11-23T14:09:43;14.30;;;7.18;;
75437;SDS011;64015;49.392;15.582;2022-11-23T14:12:16;17.48;;;8.90;;
75437;SDS011;64015;49.392;15.582;2022-11-23T14:17:50;18.30;;;7.97;;
75437;SDS011;64015;49.392;15.582;2022-11-23T14:31:43;19.88;;;7.47;;
75437;SDS011;64015;49.392;15.582;2022-11-23T14:34:22;16.25;;;7.38;;
75437;SDS011;64015;49.392;15.582;2022-11-23T14:36:58;18.92;;;7.75;;
75437;SDS011;64015;49.392;15.582;2022-11-23T14:42:40;17.10;;;7.65;;
75437;SDS011;64015;49.392;15.582;2022-11-23T14:45:12;16.30;;;7.80;;
75437;SDS011;64015;49.392;15.582;2022-11-23T14:47:39;16.15;;;8.05;;
75437;SDS011;64015;49.392;15.582;2022-11-23T14:50:05;18.42;;;9.38;;
75437;SDS011;64015;49.392;15.582;2022-11-23T14:52:44;15.75;;;9.43;;
75437;SDS011;64015;49.392;15.582;2022-11-23T14:55:24;17.17;;;8.50;;
75437;SDS011;64015;49.392;15.582;2022-11-23T14:57:54;15.18;;;7.75;;
75437;SDS011;64015;49.392;15.582;2022-11-23T15:02:57;15.43;;;7.82;;
75437;SDS011;64015;49.392;15.582;2022-11-23T15:08:01;16.50;;;7.18;;
75437;SDS011;64015;49.392;15.582;2022-11-23T15:13:15;13.32;;;7.32;;
75437;SDS011;64015;49.392;15.582;2022-11-23T15:15:43;20.38;;;8.70;;
75437;SDS011;64015;49.392;15.582;2022-11-23T15:18:10;15.95;;;8.30;;
75437;SDS011;64015;49.392;15.582;2022-11-23T15:20:45;19.35;;;8.43;;
75437;SDS011;64015;49.392;15.582;2022-11-23T15:23:15;16.80;;;8.23;;
75437;SDS011;64015;49.392;15.582;2022-11-23T15:25:54;19.00;;;8.85;;
75437;SDS011;64015;49.392;15.582;2022-11-23T15:28:27;16.10;;;8.20;;
75437;SDS011;64015;49.392;15.582;2022-11-23T15:30:55;18.73;;;8.23;;
75437;SDS011;64015;49.392;15.582;2022-11-23T15:33:21;17.67;;;8.30;;
75437;SDS011;64015;49.392;15.582;2022-11-23T15:35:48;17.08;;;8.15;;
75437;SDS011;64015;49.392;15.582;2022-11-23T15:38:15;16.38;;;7.68;;
75437;SDS011;64015;49.392;15.582;2022-11-23T15:40:43;17.00;;;8.32;;
75437;SDS011;64015;49.392;15.582;2022-11-23T15:43:11;14.40;;;7.72;;
75437;SDS011;64015;49.392;15.582;2022-11-23T15:50:51;16.20;;;8.00;;
75437;SDS011;64015;49.392;15.582;2022-11-23T15:53:18;15.57;;;8.35;;
75437;SDS011;64015;49.392;15.582;2022-11-23T15:55:48;16.73;;;8.43;;
75437;SDS011;64015;49.392;15.582;2022-11-23T15:58:17;14.98;;;7.35;;
75437;SDS011;64015;49.392;15.582;2022-11-23T16:01:27;19.73;;;8.68;;
75437;SDS011;64015;49.392;15.582;2022-11-23T16:03:41;20.92;;;9.30;;
75437;SDS011;64015;49.392;15.582;2022-11-23T16:08:37;21.33;;;10.20;;
75437;SDS011;64015;49.392;15.582;2022-11-23T16:11:28;22.30;;;10.13;;
75437;SDS011;64015;49.392;15.582;2022-11-23T16:14:19;18.17;;;9.35;;
75437;SDS011;64015;49.392;15.582;2022-11-23T16:17:25;20.17;;;9.85;;
75437;SDS011;64015;49.392;15.582;2022-11-23T16:19:54;18.20;;;9.30;;
75437;SDS011;64015;49.392;15.582;2022-11-23T16:22:33;18.02;;;8.55;;
75437;SDS011;64015;49.392;15.582;2022-11-23T16:25:07;19.67;;;8.95;;
75437;SDS011;64015;49.392;15.582;2022-11-23T16:27:57;19.05;;;9.25;;
75437;SDS011;64015;49.392;15.582;2022-11-23T16:30:35;16.67;;;7.75;;